createdAt,value
2018-03-26T06:41:56.499Z,104.93
2018-03-26T06:44:31.333Z,58.77
2018-03-26T06:47:00.965Z,56.53
2018-03-26T06:49:30.413Z,59.70
2018-03-26T06:51:59.612Z,65.40
2018-03-26T06:54:29.152Z,58.33
2018-03-26T06:56:59.722Z,62.73
2018-03-26T06:59:29.724Z,62.63
2018-03-26T07:01:59.465Z,64.30
2018-03-26T07:04:29.440Z,54.70
2018-03-26T07:06:58.895Z,61.77
2018-03-26T07:09:29.485Z,60.90
2018-03-26T07:11:58.768Z,61.50
2018-03-26T07:14:28.160Z,59.77
2018-03-26T07:16:59.923Z,66.03
2018-03-26T07:19:29.180Z,64.20
2018-03-26T07:22:07.591Z,61.73
2018-03-26T07:24:49.885Z,65.27
2018-03-26T07:27:19.788Z,60.00
2018-03-26T07:29:50.171Z,67.60
2018-03-26T07:32:19.655Z,69.67
2018-03-26T07:34:50.081Z,69.67
2018-03-26T07:37:19.438Z,109.17
2018-03-26T07:39:49.947Z,77.20
2018-03-26T07:42:50.906Z,74.50
2018-03-26T07:45:20.422Z,74.47
2018-03-26T07:47:49.618Z,74.53
2018-03-26T07:50:23.666Z,72.33
2018-03-26T07:52:52.914Z,88.07
2018-03-26T07:55:22.625Z,75.40
2018-03-26T07:58:00.586Z,83.10
2018-03-26T08:00:30.486Z,83.40
2018-03-26T08:03:01.029Z,87.23
2018-03-26T08:05:30.428Z,97.97
2018-03-26T08:07:59.685Z,90.20
2018-03-26T08:10:28.989Z,90.43
2018-03-26T08:12:58.244Z,87.47
2018-03-26T08:15:28.080Z,89.63
2018-03-26T08:17:57.363Z,91.00
2018-03-26T08:20:26.653Z,86.83
2018-03-26T08:22:55.783Z,85.57
2018-03-26T08:25:24.854Z,86.43
2018-03-26T08:27:54.013Z,90.30
2018-03-26T08:30:23.964Z,86.77
2018-03-26T08:32:53.374Z,91.83
2018-03-26T08:35:22.899Z,92.20
2018-03-26T08:37:52.425Z,86.30
2018-03-26T08:40:22.247Z,79.23
2018-03-26T08:42:52.780Z,85.20
2018-03-26T08:45:22.838Z,82.10
2018-03-26T08:47:52.005Z,80.80
2018-03-26T08:50:23.587Z,79.50
2018-03-26T08:52:52.899Z,76.93
2018-03-26T08:55:22.128Z,74.93
2018-03-26T08:57:52.580Z,71.50
2018-03-26T09:00:21.947Z,67.50
2018-03-26T09:02:51.267Z,72.67
2018-03-26T09:05:21.271Z,71.07
2018-03-26T09:07:50.586Z,69.60
2018-03-26T09:10:20.584Z,72.90
2018-03-26T09:12:50.156Z,70.50
2018-03-26T09:15:19.865Z,68.70
2018-03-26T09:17:50.105Z,72.50
2018-03-26T09:20:19.446Z,60.83
2018-03-26T09:22:49.826Z,61.80
2018-03-26T09:25:19.131Z,60.53
2018-03-26T09:27:49.605Z,57.60
2018-03-26T09:30:18.955Z,58.37
2018-03-26T09:32:53.920Z,48.93
2018-03-26T09:35:29.729Z,47.27
2018-03-26T09:38:07.128Z,43.80
2018-03-26T09:40:37.444Z,40.50
2018-03-26T09:43:06.546Z,39.20
2018-03-26T09:45:37.197Z,33.53
2018-03-26T09:48:06.361Z,32.93
2018-03-26T09:50:36.488Z,30.77
2018-03-26T09:53:06.876Z,30.33
2018-03-26T09:55:37.199Z,35.77
2018-03-26T09:58:13.712Z,26.93
2018-03-26T10:00:49.471Z,40.90
2018-03-26T10:03:19.294Z,28.40
2018-03-26T10:05:48.529Z,24.13
2018-03-26T10:08:18.974Z,21.97
2018-03-26T10:10:49.020Z,21.17
2018-03-26T10:13:18.426Z,18.53
2018-03-26T10:15:49.379Z,18.90
2018-03-26T10:18:18.567Z,16.80
2018-03-26T10:20:49.804Z,15.10
2018-03-26T10:23:19.369Z,13.97
2018-03-26T10:25:50.604Z,10.93
2018-03-26T10:28:20.398Z,12.10
2018-03-26T10:30:50.118Z,13.57
2018-03-26T10:33:19.693Z,17.40
2018-03-26T10:35:51.115Z,21.23
2018-03-26T10:38:20.764Z,13.30
2018-03-26T10:40:50.577Z,12.50
2018-03-26T10:43:20.596Z,11.20
2018-03-26T10:45:50.274Z,13.07
2018-03-26T10:48:19.424Z,13.80
2018-03-26T10:50:49.748Z,12.87
2018-03-26T10:56:09.965Z,12.90
2018-03-26T10:58:39.302Z,12.03
2018-03-26T11:01:09.182Z,10.77
2018-03-26T11:03:38.876Z,10.07
2018-03-26T11:06:09.419Z,8.57
2018-03-26T11:08:39.743Z,8.00
2018-03-26T11:11:09.414Z,9.63
2018-03-26T11:13:39.281Z,7.23
2018-03-26T11:16:08.614Z,7.70
2018-03-26T11:18:40.417Z,5.70
2018-03-26T11:21:10.712Z,4.83
2018-03-26T11:23:40.286Z,5.00
2018-03-26T11:26:17.823Z,3.97
2018-03-26T11:28:57.218Z,4.93
2018-03-26T11:31:27.549Z,5.20
2018-03-26T11:33:57.725Z,6.77
2018-03-26T11:36:27.303Z,7.23
2018-03-26T11:38:56.821Z,7.80
2018-03-26T11:41:26.830Z,6.80
2018-03-26T11:43:56.784Z,6.43
2018-03-26T11:46:32.794Z,14.90
2018-03-26T11:49:09.316Z,6.70
2018-03-26T11:51:48.493Z,13.27
2018-03-26T11:54:17.713Z,6.50
2018-03-26T11:56:51.758Z,7.33
2018-03-26T11:59:27.365Z,5.90
2018-03-26T12:02:04.958Z,9.43
2018-03-26T12:04:34.735Z,7.67
2018-03-26T12:07:04.311Z,7.83
2018-03-26T12:09:34.164Z,7.40
2018-03-26T12:12:03.568Z,7.60
2018-03-26T12:14:33.656Z,5.20
2018-03-26T12:17:03.263Z,5.70
2018-03-26T12:19:32.433Z,6.60
2018-03-26T12:22:02.617Z,8.10
2018-03-26T12:24:49.837Z,9.07
2018-03-26T12:27:20.034Z,4.90
2018-03-26T12:30:14.908Z,7.97
2018-03-26T12:32:53.240Z,7.80
2018-03-26T12:35:35.740Z,9.23
2018-03-26T12:38:12.103Z,7.70
2018-03-26T12:40:54.963Z,6.10
2018-03-26T12:43:25.011Z,6.20
2018-03-26T12:47:04.629Z,6.50
2018-03-26T12:49:35.230Z,5.87
2018-03-26T12:52:17.133Z,5.57
2018-03-26T12:54:51.041Z,5.83
2018-03-26T12:59:30.292Z,6.13
2018-03-26T13:02:11.163Z,6.23
2018-03-26T13:04:43.424Z,20.03
2018-03-26T13:07:15.682Z,18.73
2018-03-26T13:09:47.207Z,16.57
2018-03-26T13:12:17.292Z,6.85
2018-03-26T13:14:50.915Z,5.30
2018-03-26T13:17:23.459Z,8.10
2018-03-26T13:19:52.686Z,10.50
2018-03-26T13:22:22.255Z,5.77
2018-03-26T13:24:54.112Z,7.30
2018-03-26T13:27:24.523Z,7.07
2018-03-26T13:29:55.566Z,5.30
2018-03-26T13:32:25.347Z,5.73
2018-03-26T13:34:55.295Z,6.00
2018-03-26T13:37:25.874Z,7.50
2018-03-26T13:39:56.428Z,7.40
2018-03-26T13:42:26.546Z,6.07
2018-03-26T13:44:55.721Z,5.50
2018-03-26T13:47:25.966Z,10.07
2018-03-26T13:49:55.796Z,5.70
2018-03-26T13:52:25.662Z,4.80
2018-03-26T13:54:55.954Z,4.40
2018-03-26T13:57:26.014Z,4.40
2018-03-26T13:59:55.636Z,3.97
2018-03-26T14:02:25.194Z,14.20
2018-03-26T14:04:55.702Z,6.47
2018-03-26T14:07:26.903Z,4.47
2018-03-26T14:12:14.800Z,11.13
2018-03-26T14:17:00.093Z,13.83
2018-03-26T14:19:29.623Z,6.57
2018-03-26T14:21:58.689Z,6.20
2018-03-26T14:24:27.894Z,4.43
2018-03-26T14:26:57.897Z,4.50
2018-03-26T14:29:28.945Z,3.90
2018-03-26T14:31:59.307Z,4.50
2018-03-26T14:34:28.756Z,4.10
2018-03-26T14:36:58.231Z,4.20
2018-03-26T14:39:27.319Z,3.23
2018-03-26T14:41:56.581Z,9.20
2018-03-26T14:44:25.837Z,4.83
2018-03-26T14:46:55.872Z,6.73
2018-03-26T14:49:25.791Z,3.57
2018-03-26T14:51:55.076Z,5.83
2018-03-26T14:54:24.246Z,4.40
2018-03-26T14:56:54.067Z,4.10
2018-03-26T14:59:24.197Z,4.07
2018-03-26T15:01:55.925Z,4.37
2018-03-26T15:04:25.827Z,4.07
2018-03-26T15:06:55.014Z,5.00
2018-03-26T15:09:25.528Z,6.83
2018-03-26T15:11:55.385Z,6.13
2018-03-26T15:14:25.055Z,4.77
2018-03-26T15:16:55.315Z,3.97
2018-03-26T15:19:25.863Z,4.93
2018-03-26T15:21:56.120Z,4.10
2018-03-26T15:24:26.618Z,4.00
2018-03-26T15:27:06.105Z,5.90
2018-03-26T15:29:42.702Z,3.73
2018-03-26T15:32:13.434Z,6.20
2018-03-26T15:34:42.917Z,5.70
2018-03-26T15:37:14.208Z,5.00
2018-03-26T15:39:43.875Z,9.20
2018-03-26T15:42:14.790Z,10.63
2018-03-26T15:44:45.730Z,6.17
2018-03-26T15:47:27.673Z,8.00
2018-03-26T15:50:05.016Z,5.83
2018-03-26T15:52:34.162Z,6.07
2018-03-26T15:55:04.186Z,17.50
2018-03-26T15:57:34.306Z,33.63
2018-03-26T16:00:04.226Z,6.27
2018-03-26T16:02:39.989Z,4.40
2018-03-26T16:05:10.086Z,4.70
2018-03-26T16:07:42.690Z,5.73
2018-03-26T16:10:13.247Z,5.87
2018-03-26T16:12:43.876Z,4.23
2018-03-26T16:15:14.217Z,4.90
2018-03-26T16:17:45.594Z,6.17
2018-03-26T16:20:15.568Z,6.53
2018-03-26T16:22:45.746Z,7.53
2018-03-26T16:25:16.362Z,8.10
2018-03-26T16:27:48.726Z,5.30
2018-03-26T16:30:18.872Z,6.30
2018-03-26T16:32:51.565Z,5.60
2018-03-26T16:35:20.799Z,5.80
2018-03-26T16:37:50.417Z,6.00
2018-03-26T16:40:20.773Z,6.50
2018-03-26T16:42:53.040Z,15.70
2018-03-26T16:45:24.076Z,11.80
2018-03-26T16:47:53.470Z,11.27
2018-03-26T16:50:27.549Z,9.20
2018-03-26T16:53:03.958Z,6.67
2018-03-26T16:55:33.772Z,7.40
2018-03-26T16:58:03.541Z,6.03
2018-03-26T17:00:32.874Z,7.20
2018-03-26T17:03:03.224Z,5.43
2018-03-26T17:05:32.694Z,6.90
2018-03-26T17:08:03.648Z,8.37
2018-03-26T17:10:34.901Z,7.13
2018-03-26T17:13:10.380Z,7.60
2018-03-26T17:15:41.392Z,6.50
2018-03-26T17:18:20.231Z,7.23
2018-03-26T17:21:01.550Z,8.93
2018-03-26T17:23:31.122Z,6.70
2018-03-26T17:26:01.197Z,7.00
2018-03-26T17:28:30.567Z,7.30
2018-03-26T17:30:59.936Z,7.67
2018-03-26T17:33:30.017Z,9.83
2018-03-26T17:36:03.752Z,7.70
2018-03-26T17:38:33.365Z,12.13
2018-03-26T17:41:03.556Z,8.60
2018-03-26T17:43:33.925Z,8.63
2018-03-26T17:46:03.355Z,33.40
2018-03-26T17:48:33.597Z,7.80
2018-03-26T17:51:03.340Z,9.97
2018-03-26T17:53:32.791Z,18.63
2018-03-26T17:56:02.747Z,10.50
2018-03-26T17:58:34.540Z,8.03
2018-03-26T18:01:04.242Z,13.47
2018-03-26T18:03:35.110Z,10.83
2018-03-26T18:06:05.366Z,9.00
2018-03-26T18:08:38.181Z,7.60
2018-03-26T18:11:08.686Z,8.93
2018-03-26T18:13:37.802Z,10.10
2018-03-26T18:16:07.986Z,8.33
2018-03-26T18:18:37.228Z,7.63
2018-03-26T18:21:07.415Z,6.87
2018-03-26T18:23:37.092Z,9.57
2018-03-26T18:26:06.599Z,8.60
2018-03-26T18:28:36.169Z,8.60
2018-03-26T18:31:05.781Z,10.23
2018-03-26T18:33:35.406Z,14.03
2018-03-26T18:36:05.758Z,10.03
2018-03-26T18:38:45.671Z,10.73
2018-03-26T18:41:25.991Z,9.37
2018-03-26T18:43:56.054Z,10.17
2018-03-26T18:46:25.490Z,20.13
2018-03-26T18:48:56.888Z,9.83
2018-03-26T18:51:30.190Z,7.97
2018-03-26T18:53:59.390Z,9.27
2018-03-26T18:56:29.828Z,9.40
2018-03-26T18:58:59.733Z,8.50
2018-03-26T19:01:29.427Z,8.87
2018-03-26T19:04:00.535Z,9.10
2018-03-26T19:06:35.659Z,48.37
2018-03-26T19:09:15.727Z,9.80
2018-03-26T19:11:47.339Z,12.50
2018-03-26T19:14:20.168Z,11.23
2018-03-26T19:16:51.187Z,13.17
2018-03-26T19:19:21.635Z,12.03
2018-03-26T19:24:54.364Z,16.70
2018-03-26T19:27:26.848Z,38.23
2018-03-26T19:29:56.448Z,15.37
2018-03-26T19:32:25.926Z,7.73
2018-03-26T19:34:58.819Z,8.53
2018-03-26T19:37:28.995Z,12.67
2018-03-26T19:39:58.724Z,10.30
2018-03-26T19:42:30.018Z,12.80
2018-03-26T19:45:05.166Z,7.60
2018-03-26T19:47:35.136Z,11.63
2018-03-26T19:50:08.743Z,10.30
2018-03-26T19:52:54.476Z,11.03
2018-03-26T19:55:46.580Z,12.00
2018-03-26T19:58:17.637Z,12.47
2018-03-26T20:00:54.284Z,11.73
2018-03-26T20:03:28.434Z,9.90
2018-03-26T20:05:58.283Z,29.10
2018-03-26T20:08:34.921Z,14.43
2018-03-26T20:11:10.339Z,9.67
2018-03-26T20:13:55.625Z,11.10
2018-03-26T20:16:26.736Z,9.70
2018-03-26T20:19:11.600Z,14.10
2018-03-26T20:21:56.871Z,10.20
2018-03-26T20:24:28.109Z,10.73
2018-03-26T20:27:07.162Z,10.43
2018-03-26T20:29:43.683Z,10.90
2018-03-26T20:32:13.563Z,9.20
2018-03-26T20:34:51.766Z,11.60
2018-03-26T20:37:21.087Z,11.10
2018-03-26T20:39:52.094Z,12.20
2018-03-26T20:42:28.024Z,9.40
2018-03-26T20:45:00.577Z,15.20
2018-03-26T20:47:32.686Z,13.90
2018-03-26T20:52:41.019Z,9.17
2018-03-26T20:55:11.396Z,8.60
2018-03-26T20:57:55.196Z,15.23
2018-03-26T21:00:26.363Z,10.00
2018-03-26T21:02:57.198Z,12.10
2018-03-26T21:05:36.136Z,12.03
2018-03-26T21:08:08.063Z,14.43
2018-03-26T21:10:37.726Z,20.10
2018-03-26T21:13:07.818Z,12.30
2018-03-26T21:15:37.087Z,15.57
2018-03-26T21:18:06.523Z,13.20
2018-03-26T21:20:41.574Z,12.53
2018-03-26T21:23:15.439Z,11.07
2018-03-26T21:25:46.277Z,11.00
2018-03-26T21:28:16.792Z,11.63
2018-03-26T21:30:47.588Z,13.40
2018-03-26T21:33:19.096Z,12.60
2018-03-26T21:35:49.821Z,11.90
2018-03-26T21:38:19.590Z,14.23
2018-03-26T21:40:52.042Z,13.27
2018-03-26T21:43:21.574Z,27.53
2018-03-26T21:45:51.058Z,17.30
2018-03-26T21:48:22.336Z,13.43
2018-03-26T21:50:51.831Z,23.93
2018-03-26T21:53:21.138Z,18.80
2018-03-26T21:55:51.232Z,14.63
2018-03-26T21:58:21.273Z,12.23
2018-03-26T22:00:51.759Z,17.73
2018-03-26T22:03:21.911Z,19.63
2018-03-26T22:05:51.279Z,18.93
2018-03-26T22:08:25.794Z,26.80
2018-03-26T22:10:59.037Z,21.83
2018-03-26T22:13:28.742Z,18.20
2018-03-26T22:15:58.145Z,16.10
2018-03-26T22:18:27.776Z,12.97
2018-03-26T22:20:57.719Z,16.37
2018-03-26T22:23:27.094Z,17.67
2018-03-26T22:25:56.973Z,16.73
2018-03-26T22:28:26.500Z,21.20
2018-03-26T22:30:58.916Z,30.07
2018-03-26T22:33:29.362Z,20.73
2018-03-26T22:35:58.734Z,21.20
2018-03-26T22:38:27.819Z,16.70
2018-03-26T22:40:57.096Z,14.80
2018-03-26T22:43:26.423Z,33.30
2018-03-26T22:45:56.704Z,17.37
2018-03-26T22:48:25.608Z,39.77
2018-03-26T22:50:55.829Z,34.17
2018-03-26T22:53:25.409Z,19.20
2018-03-26T22:55:55.101Z,16.33
2018-03-26T22:58:27.813Z,29.73
2018-03-26T23:00:57.783Z,25.63
2018-03-26T23:03:28.023Z,26.00
2018-03-26T23:05:57.503Z,20.17
2018-03-26T23:08:27.844Z,23.30
2018-03-26T23:10:57.868Z,21.93
2018-03-26T23:13:27.787Z,20.03
2018-03-26T23:15:57.561Z,18.83
2018-03-26T23:18:26.859Z,24.93
2018-03-26T23:20:55.960Z,24.77
2018-03-26T23:23:25.473Z,24.00
2018-03-26T23:25:54.493Z,24.90
2018-03-26T23:28:23.614Z,28.90
2018-03-26T23:30:52.994Z,29.40
2018-03-26T23:33:22.011Z,21.27
2018-03-26T23:35:51.351Z,22.47
2018-03-26T23:38:20.570Z,24.60
2018-03-26T23:40:50.384Z,23.83
2018-03-26T23:43:20.332Z,22.77
2018-03-26T23:45:49.768Z,32.97
2018-03-26T23:48:19.324Z,24.87
2018-03-26T23:50:50.186Z,24.40
2018-03-26T23:53:22.362Z,25.93
2018-03-26T23:55:52.177Z,25.23
2018-03-26T23:58:21.629Z,25.23
